createdAt,value
2023-02-11T00:01:21.682Z,101221.38
2023-02-11T00:03:50.193Z,101223.19
2023-02-11T00:06:18.097Z,101219.47
2023-02-11T00:08:46.356Z,101218.12
2023-02-11T00:11:16.898Z,101223.63
2023-02-11T00:13:45.556Z,101216.37
2023-02-11T00:16:17.968Z,101214.38
2023-02-11T00:18:46.852Z,101214.41
2023-02-11T00:21:20.135Z,101208.66
2023-02-11T00:23:48.550Z,101211.25
2023-02-11T00:26:22.054Z,101210.25
2023-02-11T00:28:51.640Z,101201.97
2023-02-11T00:31:21.132Z,101204.19
2023-02-11T00:33:49.834Z,101193.75
2023-02-11T00:36:28.583Z,101199.06
2023-02-11T00:38:57.467Z,101193.53
2023-02-11T00:41:26.316Z,101204.03
2023-02-11T00:43:54.266Z,101200.22
2023-02-11T00:46:23.062Z,101195.69
2023-02-11T00:48:53.504Z,101198.28
2023-02-11T00:51:22.356Z,101186.06
2023-02-11T00:53:50.330Z,101187.25
2023-02-11T00:56:18.737Z,101191.28
2023-02-11T00:58:46.632Z,101187.62
2023-02-11T01:01:14.920Z,101195.81
2023-02-11T01:03:43.831Z,101194.16
2023-02-11T01:06:12.157Z,101174.59
2023-02-11T01:08:40.411Z,101177.69
2023-02-11T01:11:14.974Z,101175.44
2023-02-11T01:13:46.462Z,101158.94
2023-02-11T01:16:14.976Z,101162.75
2023-02-11T01:18:44.557Z,101159.09
2023-02-11T01:21:12.597Z,101152.09
2023-02-11T01:23:40.844Z,101156.06
2023-02-11T01:26:08.756Z,101149.25
2023-02-11T01:28:36.837Z,101147.25
2023-02-11T01:31:05.215Z,101144.22
2023-02-11T01:33:33.928Z,101146.09
2023-02-11T01:36:06.817Z,101138.37
2023-02-11T01:38:35.108Z,101138.34
2023-02-11T01:41:08.714Z,101131.81
2023-02-11T01:43:44.081Z,101139.91
2023-02-11T01:46:30.347Z,101135.00
2023-02-11T01:49:23.066Z,101138.75
2023-02-11T01:52:22.578Z,101128.34
2023-02-11T01:55:14.681Z,101133.66
2023-02-11T01:57:44.134Z,101135.06
2023-02-11T02:00:17.965Z,101128.66
2023-02-11T02:02:51.328Z,101123.00
2023-02-11T02:05:24.544Z,101130.38
2023-02-11T02:08:07.554Z,101138.19
2023-02-11T02:10:36.197Z,101141.00
2023-02-11T02:13:04.445Z,101130.22
2023-02-11T02:15:35.770Z,101127.31
2023-02-11T02:18:03.666Z,101126.91
2023-02-11T02:21:04.503Z,101134.91
2023-02-11T02:24:14.241Z,101125.59
2023-02-11T02:27:25.340Z,101118.16
2023-02-11T02:30:12.020Z,101122.25
2023-02-11T02:33:25.091Z,101126.56
2023-02-11T02:36:19.535Z,101124.25
2023-02-11T02:38:56.069Z,101119.41
2023-02-11T02:41:29.332Z,101109.19
2023-02-11T02:43:57.167Z,101115.41
2023-02-11T02:46:27.951Z,101118.16
2023-02-11T02:48:56.730Z,101115.06
2023-02-11T02:51:59.040Z,101112.53
2023-02-11T02:54:30.486Z,101117.97
2023-02-11T02:57:07.911Z,101109.09
2023-02-11T02:59:38.939Z,101116.62
2023-02-11T03:02:27.553Z,101107.31
2023-02-11T03:05:04.458Z,101105.19
2023-02-11T03:07:35.158Z,101105.84
2023-02-11T03:10:11.817Z,101103.28
2023-02-11T03:12:39.910Z,101101.63
2023-02-11T03:15:09.197Z,101093.44
2023-02-11T03:17:39.962Z,101089.69
2023-02-11T03:20:11.148Z,101096.50
2023-02-11T03:22:48.480Z,101086.81
2023-02-11T03:25:17.117Z,101081.81
2023-02-11T03:27:54.311Z,101086.28
2023-02-11T03:30:27.177Z,101081.88
2023-02-11T03:33:03.259Z,101083.81
2023-02-11T03:35:43.778Z,101080.78
2023-02-11T03:38:38.849Z,101082.25
2023-02-11T03:41:08.423Z,101073.44
2023-02-11T03:43:41.340Z,101072.50
2023-02-11T03:46:10.429Z,101068.84
2023-02-11T03:48:45.380Z,101064.88
2023-02-11T03:51:14.517Z,101060.25
2023-02-11T03:53:44.023Z,101052.69
2023-02-11T03:56:15.618Z,101041.78
2023-02-11T03:58:46.884Z,101039.34
2023-02-11T04:01:15.193Z,101042.94
2023-02-11T04:03:43.494Z,101035.00
2023-02-11T04:06:11.354Z,101033.63
2023-02-11T04:08:39.257Z,101024.22
2023-02-11T04:11:07.642Z,101023.75
2023-02-11T04:13:35.446Z,101018.00
2023-02-11T04:16:03.445Z,101017.16
2023-02-11T04:18:32.725Z,101008.16
2023-02-11T04:21:00.799Z,101005.06
2023-02-11T04:23:28.725Z,101001.47
2023-02-11T04:25:56.915Z,101016.00
2023-02-11T04:28:24.746Z,101004.59
2023-02-11T04:30:52.639Z,101010.94
2023-02-11T04:33:20.974Z,100997.00
2023-02-11T04:35:49.407Z,100997.66
2023-02-11T04:38:17.473Z,100992.34
2023-02-11T04:40:45.656Z,100995.66
2023-02-11T04:43:13.595Z,100998.84
2023-02-11T04:45:41.549Z,100995.97
2023-02-11T04:48:09.786Z,100998.56
2023-02-11T04:50:37.611Z,101004.09
2023-02-11T04:53:05.532Z,101005.84
2023-02-11T04:55:33.771Z,100997.13
2023-02-11T04:58:01.661Z,101002.63
2023-02-11T05:00:29.498Z,100997.69
2023-02-11T05:02:57.740Z,100995.53
2023-02-11T05:05:25.653Z,101003.66
2023-02-11T05:07:53.565Z,101008.75
2023-02-11T05:10:21.841Z,101002.56
2023-02-11T05:12:50.464Z,101006.63
2023-02-11T05:15:19.063Z,101012.75
2023-02-11T05:17:48.058Z,101011.75
2023-02-11T05:20:16.054Z,101008.28
2023-02-11T05:22:44.077Z,101005.63
2023-02-11T05:25:13.008Z,101013.75
2023-02-11T05:27:41.741Z,101006.22
2023-02-11T05:30:10.873Z,101001.53
2023-02-11T05:32:39.172Z,101002.59
2023-02-11T05:35:09.658Z,100995.72
2023-02-11T05:37:38.291Z,100995.16
2023-02-11T05:40:07.945Z,100996.63
2023-02-11T05:42:36.335Z,100986.28
2023-02-11T05:45:04.579Z,100994.94
2023-02-11T05:47:33.334Z,100996.69
2023-02-11T05:50:01.504Z,100984.50
2023-02-11T05:52:31.725Z,100990.34
2023-02-11T05:55:00.250Z,100982.03
2023-02-11T05:57:28.792Z,100984.59
2023-02-11T05:59:57.943Z,100983.66
2023-02-11T06:02:26.351Z,100996.78
2023-02-11T06:04:54.762Z,100993.50
2023-02-11T06:07:23.060Z,100992.84
2023-02-11T06:09:51.210Z,101002.22
2023-02-11T06:12:19.508Z,100997.66
2023-02-11T06:14:47.923Z,100997.41
2023-02-11T06:17:16.246Z,100998.09
2023-02-11T06:19:45.269Z,100993.66
2023-02-11T06:22:13.643Z,100994.66
2023-02-11T06:25:00.335Z,100993.09
2023-02-11T06:27:29.917Z,100987.75
2023-02-11T06:29:57.903Z,100983.72
2023-02-11T06:32:45.087Z,100985.41
2023-02-11T06:35:15.163Z,100986.78
2023-02-11T06:37:43.447Z,100990.00
2023-02-11T06:40:12.160Z,100989.56
2023-02-11T06:42:40.367Z,100987.69
2023-02-11T06:45:13.464Z,100987.78
2023-02-11T06:47:41.933Z,100978.97
2023-02-11T06:50:13.696Z,100974.78
2023-02-11T06:52:42.462Z,100974.56
2023-02-11T06:55:10.398Z,100977.06
2023-02-11T06:57:38.262Z,100971.16
2023-02-11T07:00:07.297Z,100975.59
2023-02-11T07:02:35.233Z,100974.12
2023-02-11T07:05:03.298Z,100975.09
2023-02-11T07:07:34.274Z,100976.22
2023-02-11T07:10:06.113Z,100971.03
2023-02-11T07:12:34.391Z,100964.31
2023-02-11T07:15:02.852Z,100964.44
2023-02-11T07:17:31.365Z,100964.72
2023-02-11T07:20:01.922Z,100963.19
2023-02-11T07:22:29.856Z,100965.38
2023-02-11T07:24:57.753Z,100963.47
2023-02-11T07:27:25.931Z,100961.28
2023-02-11T07:29:53.784Z,100970.66
2023-02-11T07:32:22.071Z,100968.47
2023-02-11T07:34:50.374Z,100954.69
2023-02-11T07:37:18.847Z,100966.41
2023-02-11T07:39:46.850Z,100966.63
2023-02-11T07:42:15.348Z,100964.72
2023-02-11T07:44:43.472Z,100961.19
2023-02-11T07:47:11.312Z,100953.00
2023-02-11T07:49:39.509Z,100958.47
2023-02-11T07:52:07.393Z,100946.88
2023-02-11T07:54:35.418Z,100944.66
2023-02-11T07:57:03.794Z,100947.97
2023-02-11T07:59:31.732Z,100948.66
2023-02-11T08:01:59.686Z,100938.63
2023-02-11T08:04:28.077Z,100923.25
2023-02-11T08:06:59.095Z,100932.53
2023-02-11T08:09:27.540Z,100939.91
2023-02-11T08:11:55.455Z,100941.34
2023-02-11T08:14:25.357Z,100941.63
2023-02-11T08:16:53.718Z,100938.16
2023-02-11T08:19:21.792Z,100934.38
2023-02-11T08:21:50.007Z,100933.25
2023-02-11T08:24:18.294Z,100932.59
2023-02-11T08:26:46.392Z,100937.53
2023-02-11T08:29:16.624Z,100935.63
2023-02-11T08:31:47.394Z,100931.47
2023-02-11T08:34:18.623Z,100928.53
2023-02-11T08:36:47.908Z,100935.91
2023-02-11T08:39:20.295Z,100921.53
2023-02-11T08:41:51.751Z,100922.34
2023-02-11T08:44:21.258Z,100929.72
2023-02-11T08:46:50.406Z,100929.28
2023-02-11T08:49:18.965Z,100925.31
2023-02-11T08:51:47.278Z,100933.97
2023-02-11T08:54:15.758Z,100932.84
2023-02-11T08:56:43.712Z,100936.62
2023-02-11T08:59:14.994Z,100930.34
2023-02-11T09:01:44.662Z,100932.34
2023-02-11T09:04:12.809Z,100938.03
2023-02-11T09:06:41.357Z,100932.09
2023-02-11T09:09:12.297Z,100923.59
2023-02-11T09:11:41.997Z,100928.41
2023-02-11T09:14:19.804Z,100922.91
2023-02-11T09:16:48.178Z,100921.53
2023-02-11T09:19:16.867Z,100910.38
2023-02-11T09:21:44.955Z,100907.41
2023-02-11T09:24:13.045Z,100911.41
2023-02-11T09:26:42.353Z,100897.75
2023-02-11T09:29:10.394Z,100909.59
2023-02-11T09:31:38.925Z,100903.88
2023-02-11T09:34:07.391Z,100909.94
2023-02-11T09:36:38.531Z,100918.41
2023-02-11T09:39:09.816Z,100904.22
2023-02-11T09:41:55.610Z,100897.09
2023-02-11T09:44:29.356Z,100901.97
2023-02-11T09:47:02.905Z,100899.47
2023-02-11T09:49:47.756Z,100903.53
2023-02-11T09:52:34.456Z,100895.44
2023-02-11T09:55:05.350Z,100889.31
2023-02-11T09:57:35.825Z,100899.75
2023-02-11T10:00:20.513Z,100892.22
2023-02-11T10:03:17.356Z,100888.91
2023-02-11T10:06:14.974Z,100893.50
2023-02-11T10:08:50.051Z,100884.09
2023-02-11T10:11:32.201Z,100886.50
2023-02-11T10:14:09.783Z,100879.72
2023-02-11T10:16:37.740Z,100873.44
2023-02-11T10:19:27.224Z,100869.53
2023-02-11T10:22:25.818Z,100869.88
2023-02-11T10:24:58.646Z,100858.31
2023-02-11T10:27:34.753Z,100861.69
2023-02-11T10:30:25.236Z,100854.22
2023-02-11T10:33:03.025Z,100861.41
2023-02-11T10:35:32.199Z,100850.19
2023-02-11T10:38:01.347Z,100856.81
2023-02-11T10:40:31.184Z,100842.34
2023-02-11T10:43:03.707Z,100836.50
2023-02-11T10:45:51.751Z,100838.88
2023-02-11T10:48:39.597Z,100839.41
2023-02-11T10:51:34.549Z,100830.84
2023-02-11T10:54:08.426Z,100824.50
2023-02-11T10:56:38.704Z,100819.34
2023-02-11T10:59:31.243Z,100816.53
2023-02-11T11:02:24.590Z,100821.56
2023-02-11T11:04:57.834Z,100820.88
2023-02-11T11:07:28.025Z,100819.94
2023-02-11T11:10:06.956Z,100813.63
2023-02-11T11:12:36.810Z,100810.09
2023-02-11T11:15:11.029Z,100797.38
2023-02-11T11:17:39.008Z,100803.03
2023-02-11T11:20:22.721Z,100796.97
2023-02-11T11:22:53.352Z,100798.84
2023-02-11T11:25:27.475Z,100787.47
2023-02-11T11:28:01.032Z,100778.19
2023-02-11T11:30:35.106Z,100774.59
2023-02-11T11:33:03.289Z,100769.66
2023-02-11T11:35:35.183Z,100766.69
2023-02-11T11:38:04.680Z,100765.00
2023-02-11T11:40:34.760Z,100767.72
2023-02-11T11:43:16.138Z,100758.94
2023-02-11T11:46:01.316Z,100749.91
2023-02-11T11:48:33.395Z,100743.66
2023-02-11T11:51:05.785Z,100752.41
2023-02-11T11:53:46.283Z,100747.75
2023-02-11T11:56:22.486Z,100739.34
2023-02-11T11:58:50.830Z,100734.34
2023-02-11T12:01:42.679Z,100722.72
2023-02-11T12:04:33.936Z,100724.09
2023-02-11T12:07:26.796Z,100721.94
2023-02-11T12:10:23.043Z,100726.81
2023-02-11T12:13:10.264Z,100714.94
2023-02-11T12:16:20.222Z,100711.09
2023-02-11T12:19:02.681Z,100701.41
2023-02-11T12:21:56.101Z,100694.50
2023-02-11T12:24:53.995Z,100689.47
2023-02-11T12:27:41.320Z,100672.13
2023-02-11T12:30:18.533Z,100671.37
2023-02-11T12:32:59.398Z,100669.28
2023-02-11T12:38:12.749Z,100643.41
2023-02-11T12:40:41.413Z,100653.63
2023-02-11T12:43:25.442Z,100649.84
2023-02-11T12:46:18.017Z,100648.00
2023-02-11T12:49:04.601Z,100643.47
2023-02-11T12:52:07.268Z,100641.22
2023-02-11T12:54:56.723Z,100629.59
2023-02-11T12:57:31.424Z,100633.34
2023-02-11T13:00:19.448Z,100615.22
2023-02-11T13:02:47.918Z,100601.94
2023-02-11T13:05:40.836Z,100601.75
2023-02-11T13:08:43.979Z,100597.53
2023-02-11T13:11:22.189Z,100591.47
2023-02-11T13:13:56.838Z,100589.75
2023-02-11T13:16:48.078Z,100596.50
2023-02-11T13:19:36.389Z,100590.06
2023-02-11T13:22:25.281Z,100590.50
2023-02-11T13:25:02.867Z,100595.50
2023-02-11T13:27:44.734Z,100584.94
2023-02-11T13:30:23.781Z,100591.16
2023-02-11T13:32:54.941Z,100587.88
2023-02-11T13:35:48.479Z,100588.44
2023-02-11T13:38:24.833Z,100587.72
2023-02-11T13:41:27.657Z,100587.00
2023-02-11T13:44:19.524Z,100596.87
2023-02-11T13:47:02.754Z,100599.47
2023-02-11T13:49:42.046Z,100592.34
2023-02-11T13:52:28.872Z,100596.28
2023-02-11T13:55:03.371Z,100598.38
2023-02-11T13:57:36.767Z,100592.94
2023-02-11T14:00:39.531Z,100603.37
2023-02-11T14:03:29.690Z,100608.84
2023-02-11T14:06:28.658Z,100601.91
2023-02-11T14:09:10.056Z,100597.84
2023-02-11T14:11:43.632Z,100594.25
2023-02-11T14:14:24.569Z,100591.50
2023-02-11T14:17:01.860Z,100577.25
2023-02-11T14:19:34.490Z,100570.75
2023-02-11T14:22:16.772Z,100574.81
2023-02-11T14:24:52.021Z,100581.00
2023-02-11T14:27:28.765Z,100584.03
2023-02-11T14:30:17.590Z,100588.53
2023-02-11T14:33:27.486Z,100592.72
2023-02-11T14:36:05.984Z,100607.25
2023-02-11T14:38:42.978Z,100605.75
2023-02-11T14:41:23.781Z,100604.44
2023-02-11T14:43:58.236Z,100597.97
2023-02-11T14:46:28.084Z,100602.44
2023-02-11T14:48:59.932Z,100601.66
2023-02-11T14:51:37.045Z,100590.28
2023-02-11T14:54:25.409Z,100588.12
2023-02-11T14:57:07.298Z,100596.66
2023-02-11T14:59:36.065Z,100594.72
2023-02-11T15:02:20.613Z,100581.38
2023-02-11T15:04:48.799Z,100583.53
2023-02-11T15:07:18.588Z,100578.19
2023-02-11T15:09:49.344Z,100567.44
2023-02-11T15:12:24.370Z,100574.22
2023-02-11T15:14:57.863Z,100575.87
2023-02-11T15:17:28.970Z,100581.16
2023-02-11T15:20:00.530Z,100571.09
2023-02-11T15:22:33.368Z,100568.28
2023-02-11T15:25:13.518Z,100567.50
2023-02-11T15:27:48.443Z,100568.31
2023-02-11T15:30:22.739Z,100558.91
2023-02-11T15:33:03.298Z,100557.25
2023-02-11T15:35:38.539Z,100556.13
2023-02-11T15:38:07.351Z,100549.13
2023-02-11T15:40:37.499Z,100540.56
2023-02-11T15:43:07.948Z,100540.94
2023-02-11T15:45:39.501Z,100545.09
2023-02-11T15:48:24.471Z,100532.28
2023-02-11T15:50:55.417Z,100536.84
2023-02-11T15:53:34.062Z,100533.25
2023-02-11T15:56:10.505Z,100527.91
2023-02-11T15:58:39.862Z,100526.25
2023-02-11T16:01:09.803Z,100533.13
2023-02-11T16:03:38.790Z,100535.22
2023-02-11T16:06:18.528Z,100538.81
2023-02-11T16:08:59.952Z,100536.09
2023-02-11T16:11:36.922Z,100530.47
2023-02-11T16:14:23.406Z,100523.84
2023-02-11T16:16:54.893Z,100524.69
2023-02-11T16:19:25.666Z,100515.75
2023-02-11T16:21:55.771Z,100513.03
2023-02-11T16:24:36.027Z,100521.06
2023-02-11T16:27:07.506Z,100513.16
2023-02-11T16:29:37.281Z,100504.87
2023-02-11T16:32:16.301Z,100500.19
2023-02-11T16:34:45.243Z,100502.97
2023-02-11T16:37:13.302Z,100498.81
2023-02-11T16:39:41.502Z,100504.03
2023-02-11T16:42:12.072Z,100501.31
2023-02-11T16:44:40.626Z,100510.94
2023-02-11T16:47:17.903Z,100514.66
2023-02-11T16:49:46.537Z,100509.75
2023-02-11T16:52:16.335Z,100511.56
2023-02-11T16:54:44.852Z,100515.94
2023-02-11T16:57:18.618Z,100512.06
2023-02-11T16:59:48.576Z,100506.19
2023-02-11T17:02:25.256Z,100501.13
2023-02-11T17:04:54.905Z,100494.31
2023-02-11T17:07:23.547Z,100511.53
2023-02-11T17:09:54.479Z,100511.03
2023-02-11T17:12:25.687Z,100506.31
2023-02-11T17:14:54.417Z,100510.56
2023-02-11T17:17:24.031Z,100511.81
2023-02-11T17:19:52.275Z,100519.66
2023-02-11T17:22:20.851Z,100519.75
2023-02-11T17:24:48.906Z,100512.00
2023-02-11T17:27:17.572Z,100519.63
2023-02-11T17:29:45.962Z,100513.53
2023-02-11T17:32:15.661Z,100517.19
2023-02-11T17:34:43.835Z,100507.56
2023-02-11T17:37:12.325Z,100508.94
2023-02-11T17:39:40.901Z,100505.06
2023-02-11T17:42:09.036Z,100521.72
2023-02-11T17:44:38.098Z,100521.59
2023-02-11T17:47:08.119Z,100526.28
2023-02-11T17:49:36.564Z,100522.00
2023-02-11T17:52:06.188Z,100515.41
2023-02-11T17:54:36.588Z,100511.59
2023-02-11T17:57:05.520Z,100517.09
2023-02-11T17:59:35.887Z,100512.06
2023-02-11T18:02:05.091Z,100503.50
2023-02-11T18:04:34.196Z,100505.31
2023-02-11T18:07:02.582Z,100513.12
2023-02-11T18:09:31.193Z,100499.84
2023-02-11T18:12:00.111Z,100497.75
2023-02-11T18:14:28.636Z,100497.16
2023-02-11T18:16:57.072Z,100492.66
2023-02-11T18:19:26.090Z,100490.41
2023-02-11T18:21:54.645Z,100486.72
2023-02-11T18:24:23.002Z,100480.66
2023-02-11T18:26:51.867Z,100479.25
2023-02-11T18:29:20.027Z,100480.91
2023-02-11T18:31:48.227Z,100478.16
2023-02-11T18:34:17.311Z,100470.44
2023-02-11T18:36:45.504Z,100472.50
2023-02-11T18:39:13.902Z,100469.75
2023-02-11T18:41:43.822Z,100480.38
2023-02-11T18:44:14.466Z,100467.91
2023-02-11T18:46:43.000Z,100468.09
2023-02-11T18:49:13.377Z,100469.66
2023-02-11T18:51:41.734Z,100477.44
2023-02-11T18:54:10.297Z,100485.44
2023-02-11T18:56:38.545Z,100479.91
2023-02-11T18:59:06.763Z,100479.75
2023-02-11T19:01:36.315Z,100481.84
2023-02-11T19:04:06.273Z,100486.25
2023-02-11T19:06:37.718Z,100485.50
2023-02-11T19:09:10.197Z,100495.97
2023-02-11T19:11:52.499Z,100489.81
2023-02-11T19:14:31.758Z,100498.78
2023-02-11T19:17:05.919Z,100501.47
2023-02-11T19:19:35.863Z,100493.25
2023-02-11T19:22:10.001Z,100492.69
2023-02-11T19:24:38.964Z,100491.06
2023-02-11T19:27:07.638Z,100489.78
2023-02-11T19:29:35.784Z,100497.00
2023-02-11T19:32:08.826Z,100499.13
2023-02-11T19:34:41.905Z,100500.75
2023-02-11T19:37:13.071Z,100502.94
2023-02-11T19:39:43.002Z,100499.97
2023-02-11T19:42:11.873Z,100495.94
2023-02-11T19:44:40.161Z,100493.41
2023-02-11T19:47:10.570Z,100483.19
2023-02-11T19:49:38.830Z,100490.09
2023-02-11T19:52:06.920Z,100488.81
2023-02-11T19:54:35.370Z,100497.53
2023-02-11T19:57:04.983Z,100490.84
2023-02-11T19:59:34.345Z,100493.81
2023-02-11T20:02:02.828Z,100496.81
2023-02-11T20:04:32.477Z,100500.84
2023-02-11T20:07:00.577Z,100486.88
2023-02-11T20:09:31.344Z,100488.50
2023-02-11T20:11:59.926Z,100487.28
2023-02-11T20:14:28.312Z,100484.41
2023-02-11T20:16:56.465Z,100483.66
2023-02-11T20:19:25.059Z,100483.75
2023-02-11T20:21:54.145Z,100482.84
2023-02-11T20:24:23.000Z,100478.44
2023-02-11T20:26:56.109Z,100484.41
2023-02-11T20:29:25.120Z,100478.34
2023-02-11T20:31:54.087Z,100483.91
2023-02-11T20:34:22.705Z,100479.28
2023-02-11T20:36:54.355Z,100480.25
2023-02-11T20:39:24.204Z,100477.31
2023-02-11T20:41:53.514Z,100469.47
2023-02-11T20:44:22.596Z,100472.69
2023-02-11T20:46:52.074Z,100471.91
2023-02-11T20:49:22.677Z,100473.19
2023-02-11T20:51:52.736Z,100472.91
2023-02-11T20:54:21.607Z,100470.13
2023-02-11T20:56:53.991Z,100474.22
2023-02-11T20:59:22.968Z,100471.25
2023-02-11T21:01:56.351Z,100479.19
2023-02-11T21:04:30.109Z,100484.19
2023-02-11T21:07:00.781Z,100485.66
2023-02-11T21:09:31.664Z,100485.22
2023-02-11T21:12:00.363Z,100482.00
2023-02-11T21:14:29.099Z,100483.66
2023-02-11T21:16:57.789Z,100475.31
2023-02-11T21:19:26.162Z,100468.06
2023-02-11T21:21:55.602Z,100456.91
2023-02-11T21:24:24.100Z,100460.19
2023-02-11T21:26:52.224Z,100463.63
2023-02-11T21:29:20.678Z,100467.78
2023-02-11T21:31:49.054Z,100459.66
2023-02-11T21:34:17.455Z,100469.69
2023-02-11T21:36:46.095Z,100468.22
2023-02-11T21:39:14.278Z,100474.81
2023-02-11T21:41:42.378Z,100474.63
2023-02-11T21:44:10.992Z,100470.50
2023-02-11T21:46:40.650Z,100480.13
2023-02-11T21:49:08.804Z,100480.47
2023-02-11T21:51:37.374Z,100480.75
2023-02-11T21:54:06.063Z,100472.38
2023-02-11T21:56:35.657Z,100476.53
2023-02-11T21:59:04.252Z,100480.03
2023-02-11T22:01:35.470Z,100476.75
2023-02-11T22:04:04.328Z,100477.56
2023-02-11T22:06:34.465Z,100470.66
2023-02-11T22:09:05.498Z,100465.41
2023-02-11T22:11:34.296Z,100466.31
2023-02-11T22:14:02.506Z,100450.22
2023-02-11T22:16:31.263Z,100450.59
2023-02-11T22:19:02.590Z,100438.34
2023-02-11T22:21:30.961Z,100440.47
2023-02-11T22:23:59.413Z,100457.87
2023-02-11T22:26:28.253Z,100454.13
2023-02-11T22:28:56.546Z,100466.94
2023-02-11T22:31:27.690Z,100467.84
2023-02-11T22:33:56.424Z,100481.00
2023-02-11T22:36:27.768Z,100483.81
2023-02-11T22:38:56.364Z,100477.31
2023-02-11T22:41:24.976Z,100470.47
2023-02-11T22:43:53.398Z,100461.94
2023-02-11T22:46:21.712Z,100464.34
2023-02-11T22:48:50.536Z,100456.22
2023-02-11T22:51:24.265Z,100459.78
2023-02-11T22:53:54.157Z,100458.03
2023-02-11T22:56:23.039Z,100463.38
2023-02-11T22:58:52.382Z,100471.56
2023-02-11T23:01:20.943Z,100463.69
2023-02-11T23:03:49.089Z,100480.97
2023-02-11T23:06:17.617Z,100486.31
2023-02-11T23:08:46.633Z,100483.53
2023-02-11T23:11:18.026Z,100474.59
2023-02-11T23:13:47.739Z,100479.66
2023-02-11T23:16:18.412Z,100469.16
2023-02-11T23:18:48.595Z,100470.22
2023-02-11T23:21:19.575Z,100474.91
2023-02-11T23:23:48.902Z,100472.19
2023-02-11T23:26:18.769Z,100470.16
2023-02-11T23:28:47.367Z,100456.47
2023-02-11T23:31:31.254Z,100473.59
2023-02-11T23:33:59.474Z,100474.94
2023-02-11T23:36:28.212Z,100465.06
2023-02-11T23:38:56.386Z,100466.12
2023-02-11T23:41:25.246Z,100461.47
2023-02-11T23:43:56.086Z,100470.44
2023-02-11T23:46:25.701Z,100464.75
2023-02-11T23:48:54.337Z,100465.69
2023-02-11T23:51:23.346Z,100470.09
2023-02-11T23:53:52.926Z,100471.28
2023-02-11T23:56:26.566Z,100467.66
2023-02-11T23:58:57.718Z,100473.56
